Sikeston, Missouri
Current Conditions -  °F | °C
As of 8:15 PM on Sunday 25 Jan 2015 (Local Time) from KCIR Reporting Station
Overcast Overcast  
Wind Chill: 34°   Ceiling: 1000
Heat Index: 43°   Visibility: 7mi
Dew Point: 42°   Wind: 22mph
Humidity: 95%   Direction: 330°NNW
Pressure: 29.81"   Gusts: 29mph
Location:  36.88°N, 89.59°W
Report Text: KCIR 260215Z AUTO 33019G25KT 7SM BKN010 OVC015 06/05 A2981 RMK AO2 T00620054
Loading
Personal Weather Stations






























Interactive Weather Map New forecast layout! Learn more

10-Day Weather Forecast

Advertisements
Track Severe Weather on mobile